Dewey, Illinois
Current Conditions -  °F | °C
As of 9:30 PM on Friday 19 Dec 2014 (Local Time) from KTIP Reporting Station
Haze Haze  
Wind Chill: 29°   Ceiling: Unl
Heat Index: 29°   Visibility: 5mi
Dew Point: 27°   Wind: 0mph
Humidity: 91%   Direction: NA
Pressure: 30.27"   Gusts: NA
Location:  40.32°N, 88.28°W
Report Text: KTIP 200330Z AUTO 00000KT 5SM BR CLR M02/M03 A3027 RMK AO2 T10171030
Loading
Personal Weather Stations






























Interactive Weather Map New forecast layout! Learn more

10-Day Weather Forecast

Advertisements
Track Severe Weather on mobile